Time;durP1;ratioP1;P1;durP2;ratioP2;P2;SDS_P1;SDS_P2;PMS_P1;PMS_P2;Temp;Humidity;BMP_temperature;BMP_pressure;BME280_temperature;BME280_humidity;BME280_pressure;Samples;Min_cycle;Max_cycle;Signal;HPM_P1;HPM_P2
2024/03/11 00:01:54;;;;;;;29.17;13.10;;;;;;;4.50;51.57;100172.38;5024608;28;20150;-69
2024/03/11 00:04:24;;;;;;;29.35;13.38;;;;;;;4.52;51.37;100164.56;5030844;28;20418;-69
2024/03/11 00:06:51;;;;;;;26.92;13.27;;;;;;;4.39;51.86;100164.03;5024903;28;20036;-69
2024/03/11 00:09:28;;;;;;;31.35;13.68;;;;;;;4.53;51.35;100166.28;5024085;28;20052;-69
2024/03/11 00:11:57;;;;;;;32.53;13.32;;;;;;;4.60;51.51;100167.81;5023969;28;20044;-68
2024/03/11 00:14:28;;;;;;;26.02;13.45;;;;;;;4.56;51.25;100161.00;5032144;28;20068;-69
2024/03/11 00:16:58;;;;;;;29.15;14.13;;;;;;;4.62;51.41;100155.66;5024935;28;20033;-69
2024/03/11 00:19:26;;;;;;;31.50;13.65;;;;;;;4.47;51.13;100159.50;5032650;28;20406;-69
2024/03/11 00:21:53;;;;;;;32.33;13.85;;;;;;;4.38;51.70;100158.00;5024905;28;20052;-69
2024/03/11 00:24:26;;;;;;;29.48;14.50;;;;;;;4.21;52.36;100155.00;5032756;28;20041;-76
2024/03/11 00:26:52;;;;;;;26.17;14.50;;;;;;;4.11;52.48;100153.53;5027097;28;20043;-76
2024/03/11 00:29:19;;;;;;;28.20;12.98;;;;;;;4.31;51.81;100143.53;5030089;28;20318;-76
2024/03/11 00:31:45;;;;;;;30.88;13.07;;;;;;;4.28;51.96;100147.94;5041801;28;20029;-76
2024/03/11 00:34:19;;;;;;;29.75;14.18;;;;;;;4.37;51.78;100147.72;5025572;28;20047;-76
2024/03/11 00:36:50;;;;;;;31.65;13.68;;;;;;;4.47;51.65;100145.72;5025626;28;20028;-75
2024/03/11 00:39:16;;;;;;;32.57;12.80;;;;;;;4.39;51.83;100144.19;5030671;28;20739;-76
2024/03/11 00:41:42;;;;;;;35.53;14.18;;;;;;;4.43;51.75;100145.81;5024723;28;20036;-77
2024/03/11 00:44:10;;;;;;;25.67;13.35;;;;;;;4.28;52.06;100155.72;5036795;28;20544;-78
2024/03/11 00:46:36;;;;;;;32.35;12.27;;;;;;;4.17;52.45;100143.88;5033526;28;20037;-76
2024/03/11 00:49:02;;;;;;;36.38;13.65;;;;;;;4.16;52.35;100151.66;5037420;28;20040;-77
2024/03/11 00:51:28;;;;;;;30.05;13.10;;;;;;;4.33;52.12;100146.94;5029690;28;20024;-76
2024/03/11 00:53:53;;;;;;;26.60;13.30;;;;;;;4.39;51.92;100151.09;5030967;28;20043;-76
2024/03/11 00:56:23;;;;;;;32.97;13.57;;;;;;;4.53;51.25;100150.75;5034289;28;20079;-76
2024/03/11 00:58:51;;;;;;;27.63;12.63;;;;;;;4.52;51.61;100154.19;5030121;28;20033;-76
2024/03/11 01:01:19;;;;;;;29.75;12.32;;;;;;;4.28;52.14;100155.72;5038777;28;20108;-76
2024/03/11 01:03:44;;;;;;;23.98;12.43;;;;;;;4.38;51.75;100150.22;5033309;28;20044;-77
2024/03/11 01:06:10;;;;;;;23.25;12.30;;;;;;;4.41;51.74;100155.34;5034464;28;20029;-77
2024/03/11 01:08:38;;;;;;;29.05;11.88;;;;;;;4.30;51.97;100151.34;5038030;28;20067;-78
2024/03/11 01:11:03;;;;;;;29.20;13.55;;;;;;;4.38;51.52;100160.59;5027203;28;20044;-74
2024/03/11 01:13:34;;;;;;;28.17;12.15;;;;;;;4.50;51.36;100158.56;5023461;28;20528;-75
2024/03/11 01:15:59;;;;;;;28.60;13.25;;;;;;;4.09;52.44;100156.13;5032876;28;20210;-75
2024/03/11 01:18:27;;;;;;;32.67;13.18;;;;;;;4.41;51.53;100162.28;5035959;28;20163;-76
2024/03/11 01:20:54;;;;;;;27.85;12.70;;;;;;;4.43;51.55;100156.16;5027893;28;20048;-72
2024/03/11 01:23:20;;;;;;;29.95;13.65;;;;;;;4.29;52.06;100145.31;5033971;28;20052;-72
2024/03/11 01:25:46;;;;;;;33.53;12.68;;;;;;;4.21;52.08;100149.84;5032631;28;20033;-72
2024/03/11 01:28:12;;;;;;;24.75;13.68;;;;;;;4.36;51.69;100144.28;5032585;28;20384;-72
2024/03/11 01:30:41;;;;;;;25.88;12.40;;;;;;;4.34;51.40;100140.88;5031684;28;20040;-73
2024/03/11 01:33:07;;;;;;;28.17;14.70;;;;;;;4.30;51.97;100143.59;5033703;28;20066;-72
2024/03/11 01:35:34;;;;;;;27.65;11.80;;;;;;;4.28;51.76;100135.84;5033638;28;20517;-70
2024/03/11 01:38:00;;;;;;;26.88;12.90;;;;;;;4.10;52.01;100141.50;5023970;28;20135;-70
2024/03/11 01:40:28;;;;;;;33.47;13.23;;;;;;;4.17;51.94;100135.28;5035279;28;20094;-71
2024/03/11 01:42:54;;;;;;;25.48;12.38;;;;;;;4.24;52.04;100139.41;5028083;28;20558;-71
2024/03/11 01:45:22;;;;;;;31.40;12.25;;;;;;;4.16;52.16;100130.97;5034692;28;20036;-71
2024/03/11 01:47:52;;;;;;;24.92;12.18;;;;;;;4.19;51.95;100131.75;5030347;28;20045;-69
2024/03/11 01:50:18;;;;;;;29.52;11.88;;;;;;;4.23;52.01;100122.19;5031247;28;20051;-70
2024/03/11 01:52:56;;;;;;;33.90;13.48;;;;;;;3.99;52.82;100126.25;5032879;28;20567;-72
2024/03/11 01:55:25;;;;;;;32.85;13.50;;;;;;;4.21;52.10;100134.31;5034936;28;20471;-70
2024/03/11 01:57:52;;;;;;;30.80;13.63;;;;;;;4.12;52.42;100129.34;5020253;28;20511;-70
2024/03/11 02:00:21;;;;;;;33.25;11.50;;;;;;;4.00;52.73;100126.19;5035629;28;20383;-70
2024/03/11 02:02:47;;;;;;;24.40;12.90;;;;;;;3.60;53.56;100121.13;5030305;28;20048;-71
2024/03/11 02:05:15;;;;;;;25.98;11.55;;;;;;;3.94;52.78;100118.59;5030209;28;20184;-71
2024/03/11 02:07:42;;;;;;;29.92;12.65;;;;;;;3.97;52.92;100115.94;5031800;28;20045;-69
2024/03/11 02:10:13;;;;;;;24.13;11.73;;;;;;;4.07;52.54;100115.69;5018158;28;20086;-70
2024/03/11 02:12:47;;;;;;;23.30;11.63;;;;;;;3.89;53.13;100119.59;5023360;28;20076;-70
2024/03/11 02:15:14;;;;;;;27.75;12.77;;;;;;;4.12;52.33;100119.88;5046032;28;20164;-71
2024/03/11 02:17:43;;;;;;;29.67;11.68;;;;;;;4.10;52.59;100120.81;5036264;28;20557;-69
2024/03/11 02:20:16;;;;;;;26.40;12.85;;;;;;;3.58;53.48;100123.75;5027900;28;20508;-72
2024/03/11 02:22:47;;;;;;;27.48;12.00;;;;;;;3.79;53.05;100116.38;5033287;28;20128;-71
2024/03/11 02:25:14;;;;;;;25.17;11.70;;;;;;;3.63;53.55;100130.53;5030841;28;22035;-71
2024/03/11 02:27:41;;;;;;;39.88;14.15;;;;;;;3.71;53.34;100113.97;5023197;28;20518;-73
2024/03/11 02:30:07;;;;;;;30.33;11.27;;;;;;;3.74;53.45;100116.50;5034195;28;20028;-72
2024/03/11 02:32:44;;;;;;;32.65;12.65;;;;;;;3.71;53.46;100123.47;5035676;28;20033;-72
2024/03/11 02:35:14;;;;;;;27.75;12.02;;;;;;;3.66;53.74;100112.38;5027893;28;20036;-71
2024/03/11 02:37:45;;;;;;;29.52;12.43;;;;;;;3.76;53.88;100121.59;5026228;28;20128;-71
2024/03/11 02:40:13;;;;;;;30.42;12.38;;;;;;;3.91;53.22;100110.91;5025001;28;20119;-72
2024/03/11 02:42:42;;;;;;;34.28;13.15;;;;;;;3.90;53.13;100121.31;5034235;28;20157;-71
2024/03/11 02:45:14;;;;;;;22.40;11.80;;;;;;;3.63;54.27;100115.91;5027289;28;20044;-70
2024/03/11 02:47:42;;;;;;;27.88;13.45;;;;;;;3.97;53.48;100115.94;5033919;28;20052;-71
2024/03/11 02:50:08;;;;;;;25.42;12.25;;;;;;;4.02;53.04;100113.22;5025844;28;20036;-71
2024/03/11 02:52:34;;;;;;;27.60;12.93;;;;;;;3.90;53.54;100114.38;5035126;28;20040;-71
2024/03/11 02:55:01;;;;;;;23.65;11.52;;;;;;;3.98;53.18;100111.59;5026189;28;20033;-71
2024/03/11 02:57:28;;;;;;;34.85;13.45;;;;;;;3.94;53.12;100118.59;5034161;28;20037;-71
2024/03/11 02:59:56;;;;;;;25.83;10.85;;;;;;;3.80;53.67;100108.56;5029356;28;20138;-71
2024/03/11 03:02:23;;;;;;;27.40;12.00;;;;;;;3.71;54.10;100107.94;5032590;28;20044;-70
2024/03/11 03:04:52;;;;;;;24.63;12.95;;;;;;;3.81;53.59;100099.09;5034671;28;20717;-76
2024/03/11 03:07:17;;;;;;;27.80;11.15;;;;;;;3.80;53.82;100105.13;5028857;28;20066;-76
2024/03/11 03:09:43;;;;;;;24.92;11.32;;;;;;;3.64;54.06;100104.66;5045191;28;20569;-70
2024/03/11 03:12:09;;;;;;;28.70;12.75;;;;;;;3.64;54.21;100107.25;5025568;28;20486;-70
2024/03/11 03:14:38;;;;;;;27.85;12.27;;;;;;;4.09;53.15;100109.59;5035552;28;20037;-70
2024/03/11 03:17:09;;;;;;;22.60;10.80;;;;;;;3.98;53.49;100104.72;5015133;28;20025;-70
2024/03/11 03:19:34;;;;;;;30.25;12.13;;;;;;;4.00;53.66;100105.50;5033477;28;20038;-70
2024/03/11 03:22:00;;;;;;;22.17;10.25;;;;;;;4.04;53.19;100105.44;5020834;28;20038;-72
2024/03/11 03:24:26;;;;;;;30.25;11.90;;;;;;;3.94;53.44;100108.25;5036783;28;20074;-72
2024/03/11 03:26:51;;;;;;;24.13;11.20;;;;;;;3.65;54.18;100105.50;5034087;28;20127;-70
2024/03/11 03:29:19;;;;;;;33.35;12.27;;;;;;;3.78;53.88;100114.66;5029487;28;20083;-71
2024/03/11 03:31:45;;;;;;;25.15;11.43;;;;;;;3.86;53.80;100117.94;5030842;28;20094;-70
2024/03/11 03:34:11;;;;;;;24.05;10.85;;;;;;;3.70;54.21;100114.88;5028248;28;20041;-71
2024/03/11 03:36:38;;;;;;;22.73;11.38;;;;;;;3.88;53.45;100111.00;5032584;28;20039;-71
2024/03/11 03:39:05;;;;;;;23.02;11.30;;;;;;;3.81;53.66;100127.53;5022459;28;20067;-71
2024/03/11 03:41:34;;;;;;;29.33;11.55;;;;;;;3.80;53.66;100121.50;5033020;28;20495;-70
2024/03/11 03:43:59;;;;;;;19.35;9.80;;;;;;;3.87;53.89;100122.19;5019712;28;20044;-70
2024/03/11 03:46:25;;;;;;;22.83;11.13;;;;;;;3.80;53.43;100116.31;5034094;28;20091;-72
2024/03/11 03:48:53;;;;;;;27.27;11.13;;;;;;;3.78;53.85;100115.53;5027833;28;20128;-71
2024/03/11 03:51:18;;;;;;;23.30;11.60;;;;;;;3.90;53.51;100114.38;5015113;28;22255;-70
2024/03/11 03:53:45;;;;;;;22.15;11.18;;;;;;;3.70;54.15;100114.03;5048687;28;20040;-72
2024/03/11 03:56:12;;;;;;;25.75;10.30;;;;;;;3.78;53.80;100109.50;5026113;28;20168;-71
2024/03/11 03:58:38;;;;;;;25.50;11.82;;;;;;;3.85;53.62;100105.03;5032886;28;20075;-71
2024/03/11 04:01:06;;;;;;;33.03;11.32;;;;;;;3.75;53.73;100107.84;5022967;28;20931;-71
2024/03/11 04:03:34;;;;;;;22.60;9.63;;;;;;;3.51;54.50;100106.66;5032009;28;20107;-70
2024/03/11 04:06:00;;;;;;;28.45;11.32;;;;;;;3.51;54.02;100098.91;5024700;28;20025;-72
2024/03/11 04:08:25;;;;;;;23.67;11.30;;;;;;;3.81;53.58;100109.44;5032365;28;20510;-71
2024/03/11 04:10:53;;;;;;;24.33;10.50;;;;;;;3.80;53.66;100098.22;5029186;28;20029;-71
2024/03/11 04:13:19;;;;;;;24.65;10.18;;;;;;;3.93;53.59;100096.19;5028458;28;20044;-71
2024/03/11 04:15:46;;;;;;;24.55;10.52;;;;;;;3.71;53.86;100102.78;5029323;28;20520;-72
2024/03/11 04:18:12;;;;;;;25.85;10.85;;;;;;;3.33;54.84;100096.75;5026741;28;20040;-72
2024/03/11 04:20:39;;;;;;;26.65;11.07;;;;;;;3.56;54.51;100104.84;5032424;28;20490;-71
2024/03/11 04:23:12;;;;;;;23.85;10.45;;;;;;;3.37;55.26;100099.25;5025615;28;20505;-71
2024/03/11 04:25:37;;;;;;;22.17;9.43;;;;;;;3.78;54.04;100104.31;5030364;28;20120;-72
2024/03/11 04:28:05;;;;;;;22.52;10.27;;;;;;;3.55;54.22;100105.72;5026228;28;20170;-71
2024/03/11 04:30:34;;;;;;;21.85;9.25;;;;;;;3.49;54.73;100107.59;5035216;28;20113;-71
2024/03/11 04:33:01;;;;;;;22.88;10.52;;;;;;;3.56;54.46;100102.28;5036182;28;20044;-75
2024/03/11 04:35:29;;;;;;;25.90;11.73;;;;;;;3.70;54.03;100094.19;5036982;28;20028;-75
2024/03/11 04:37:58;;;;;;;25.08;9.60;;;;;;;3.59;54.42;100096.19;5036488;28;20596;-75
2024/03/11 04:40:25;;;;;;;19.33;9.38;;;;;;;3.56;54.21;100091.94;5032353;28;20039;-74
2024/03/11 04:42:51;;;;;;;22.17;10.15;;;;;;;3.57;54.32;100093.63;5028745;28;20951;-75
2024/03/11 04:45:17;;;;;;;24.52;10.50;;;;;;;3.67;54.28;100094.28;5038278;28;20032;-75
2024/03/11 04:47:43;;;;;;;26.75;10.73;;;;;;;3.63;54.29;100102.09;5036009;28;20363;-75
2024/03/11 04:50:10;;;;;;;29.73;10.30;;;;;;;3.44;54.93;100104.28;5029548;28;20037;-76
2024/03/11 04:52:37;;;;;;;22.33;10.23;;;;;;;3.59;54.33;100104.78;5040879;28;20033;-75
2024/03/11 04:55:03;;;;;;;21.73;9.65;;;;;;;3.53;54.63;100104.91;5035278;28;20032;-74
2024/03/11 04:57:29;;;;;;;24.67;11.40;;;;;;;3.56;54.44;100096.22;5021204;28;20124;-73
2024/03/11 04:59:54;;;;;;;23.52;10.30;;;;;;;3.52;54.64;100102.38;5035168;28;20132;-72
2024/03/11 05:02:21;;;;;;;29.08;10.80;;;;;;;3.21;54.82;100107.34;5027538;28;20056;-73
2024/03/11 05:04:47;;;;;;;25.73;10.63;;;;;;;3.43;54.67;100102.59;5038846;28;20036;-72
2024/03/11 05:07:12;;;;;;;23.20;10.82;;;;;;;3.47;54.54;100094.72;5025257;28;20092;-72
2024/03/11 05:09:40;;;;;;;20.42;9.90;;;;;;;3.55;54.36;100103.13;5038155;28;20039;-72
2024/03/11 05:12:06;;;;;;;27.70;9.00;;;;;;;3.45;54.61;100104.25;5025534;28;20135;-72
2024/03/11 05:14:33;;;;;;;25.23;10.50;;;;;;;3.53;54.31;100104.06;5033732;28;20139;-73
2024/03/11 05:16:58;;;;;;;23.80;10.15;;;;;;;3.49;54.40;100103.31;5040558;28;20033;-72
2024/03/11 05:19:24;;;;;;;34.13;11.48;;;;;;;3.39;54.56;100106.97;5029916;28;20033;-75
2024/03/11 05:21:49;;;;;;;27.00;10.90;;;;;;;3.72;53.88;100120.00;5036288;28;20033;-73
2024/03/11 05:24:15;;;;;;;24.60;10.18;;;;;;;3.54;54.16;100111.78;5025359;28;20037;-75
2024/03/11 05:26:41;;;;;;;16.63;9.80;;;;;;;3.58;54.10;100110.84;5038118;28;20372;-75
2024/03/11 05:29:06;;;;;;;25.45;10.18;;;;;;;3.50;54.35;100115.31;5030229;28;20041;-77
2024/03/11 05:31:32;;;;;;;28.33;10.10;;;;;;;3.60;53.77;100115.94;5019603;28;20518;-79
2024/03/11 05:33:57;;;;;;;27.92;10.95;;;;;;;3.41;54.46;100125.03;5015760;28;20123;-74
2024/03/11 05:36:23;;;;;;;28.42;9.68;;;;;;;3.37;54.63;100124.22;5030045;28;20052;-73
2024/03/11 05:38:48;;;;;;;22.38;10.88;;;;;;;3.39;54.43;100122.47;5035489;28;20071;-70
2024/03/11 05:41:13;;;;;;;25.08;10.25;;;;;;;3.46;54.57;100118.00;5028165;28;20755;-75
2024/03/11 05:43:40;;;;;;;21.10;10.75;;;;;;;3.28;54.91;100127.81;5039865;28;20516;-77
2024/03/11 05:46:05;;;;;;;20.80;10.25;;;;;;;3.55;54.29;100128.13;5048748;28;20041;-77
2024/03/11 05:48:33;;;;;;;21.17;10.27;;;;;;;3.72;53.61;100132.94;5030360;28;20048;-76
2024/03/11 05:51:02;;;;;;;23.45;10.75;;;;;;;3.39;54.52;100127.63;5038745;28;20401;-75
2024/03/11 05:53:28;;;;;;;21.05;9.93;;;;;;;3.35;54.64;100131.16;5031941;28;21222;-75
2024/03/11 05:55:55;;;;;;;25.55;10.30;;;;;;;3.50;53.94;100130.81;5039767;28;20041;-77
2024/03/11 05:58:26;;;;;;;24.45;11.15;;;;;;;3.73;53.19;100130.28;5021187;28;20040;-76
2024/03/11 06:00:52;;;;;;;26.67;10.52;;;;;;;3.63;53.59;100125.34;5051480;28;20033;-77
2024/03/11 06:03:19;;;;;;;22.98;11.05;;;;;;;3.67;53.47;100129.56;5032560;28;20044;-76
2024/03/11 06:05:44;;;;;;;20.88;10.25;;;;;;;3.42;54.15;100124.97;5034245;28;20064;-78
2024/03/11 06:08:11;;;;;;;24.63;11.10;;;;;;;3.63;53.82;100122.78;5031857;28;20128;-76
2024/03/11 06:10:38;;;;;;;24.25;9.70;;;;;;;3.46;53.93;100123.19;5026309;28;20025;-76
2024/03/11 06:13:04;;;;;;;23.50;9.70;;;;;;;3.63;53.73;100130.53;5030819;28;20592;-77
2024/03/11 06:15:30;;;;;;;24.50;9.80;;;;;;;3.55;53.22;100125.56;5022818;28;20098;-76
2024/03/11 06:17:56;;;;;;;24.77;10.20;;;;;;;3.48;54.13;100127.41;5034813;28;20037;-80
2024/03/11 06:20:22;;;;;;;20.33;9.82;;;;;;;3.65;53.53;100123.59;5033631;28;20029;-76
2024/03/11 06:22:47;;;;;;;25.35;9.95;;;;;;;3.47;53.82;100130.91;5034677;28;20044;-73
2024/03/11 06:25:15;;;;;;;24.88;10.10;;;;;;;3.58;53.34;100128.94;5028940;28;20064;-75
2024/03/11 06:27:43;;;;;;;19.58;8.65;;;;;;;3.42;53.71;100134.47;5033226;28;20048;-75
2024/03/11 06:30:09;;;;;;;23.88;10.18;;;;;;;3.45;53.85;100127.50;5036019;28;20467;-75
2024/03/11 06:32:37;;;;;;;21.45;10.15;;;;;;;3.62;53.47;100126.25;5027179;28;20131;-75
2024/03/11 06:35:05;;;;;;;21.48;10.70;;;;;;;3.41;54.08;100133.63;5023041;28;20028;-74
2024/03/11 06:37:30;;;;;;;23.73;11.80;;;;;;;3.49;54.23;100139.47;5025616;28;20519;-74
2024/03/11 06:39:56;;;;;;;22.88;11.68;;;;;;;3.26;54.51;100146.81;5034975;28;20059;-73
2024/03/11 06:42:38;;;;;;;22.73;10.50;;;;;;;3.49;54.03;100139.47;5040661;28;20047;-72
2024/03/11 06:45:05;;;;;;;31.08;12.05;;;;;;;3.41;54.40;100143.09;5026383;28;20037;-71
2024/03/11 06:47:30;;;;;;;21.42;10.82;;;;;;;3.53;53.70;100135.91;5031315;28;20072;-72
2024/03/11 06:49:56;;;;;;;27.27;11.55;;;;;;;3.45;54.62;100143.00;5032584;28;20129;-74
2024/03/11 06:52:21;;;;;;;30.08;11.57;;;;;;;3.68;53.90;100141.63;5026361;28;20526;-72
2024/03/11 06:54:48;;;;;;;22.17;10.18;;;;;;;3.76;53.54;100142.28;5031824;28;20037;-75
2024/03/11 06:57:14;;;;;;;25.40;10.90;;;;;;;3.82;53.61;100142.16;5030538;28;20137;-73
2024/03/11 06:59:39;;;;;;;30.92;11.88;;;;;;;3.75;53.40;100135.44;5029137;28;20535;-73
2024/03/11 07:02:06;;;;;;;24.85;10.27;;;;;;;3.85;53.13;100144.69;5034821;28;20248;-75
2024/03/11 07:04:32;;;;;;;17.10;9.65;;;;;;;3.87;53.17;100148.06;5029795;28;20024;-71
2024/03/11 07:06:59;;;;;;;22.42;10.38;;;;;;;3.78;53.17;100143.09;5032441;28;20021;-71
2024/03/11 07:09:25;;;;;;;23.92;10.32;;;;;;;3.93;53.03;100142.75;5027090;28;20072;-74
2024/03/11 07:11:51;;;;;;;26.02;9.98;;;;;;;3.65;53.68;100141.69;5034973;28;20032;-72
2024/03/11 07:14:16;;;;;;;30.48;11.82;;;;;;;3.73;53.30;100145.78;5029365;28;20899;-73
2024/03/11 07:16:43;;;;;;;26.48;10.07;;;;;;;4.06;52.81;100155.38;5016014;28;20505;-73
2024/03/11 07:19:09;;;;;;;23.48;10.75;;;;;;;4.05;52.46;100156.25;5031252;28;20510;-71
2024/03/11 07:21:38;;;;;;;22.98;10.98;;;;;;;4.08;52.68;100153.63;5024611;28;20675;-71
2024/03/11 07:24:07;;;;;;;22.02;10.55;;;;;;;4.09;52.53;100158.72;5029651;28;20492;-75
2024/03/11 07:26:33;;;;;;;22.67;9.95;;;;;;;4.20;52.36;100158.47;5033330;28;20036;-74
2024/03/11 07:28:58;;;;;;;25.27;11.43;;;;;;;4.13;52.43;100151.75;5036175;28;20083;-74
2024/03/11 07:31:24;;;;;;;28.10;11.27;;;;;;;4.13;52.64;100149.16;5024352;28;20501;-70
2024/03/11 07:33:50;;;;;;;29.38;11.40;;;;;;;4.17;52.30;100155.97;5035985;28;20098;-72
2024/03/11 07:36:18;;;;;;;23.83;9.63;;;;;;;4.34;52.13;100155.53;5026935;28;20037;-72
2024/03/11 07:38:46;;;;;;;21.88;10.13;;;;;;;4.26;52.09;100150.56;5033610;28;20061;-77
2024/03/11 07:41:13;;;;;;;23.17;11.45;;;;;;;3.96;52.59;100150.44;5029996;28;20036;-72
2024/03/11 07:43:39;;;;;;;30.05;11.20;;;;;;;4.08;52.52;100154.47;5025977;28;20904;-72
2024/03/11 07:46:05;;;;;;;22.73;10.85;;;;;;;3.98;53.00;100150.38;5029137;28;20043;-72
2024/03/11 07:48:31;;;;;;;24.17;11.23;;;;;;;4.08;52.79;100158.78;5017858;28;20036;-70
2024/03/11 07:50:57;;;;;;;27.98;9.75;;;;;;;4.18;52.05;100149.91;5032469;28;20040;-71
2024/03/11 07:53:23;;;;;;;22.65;10.30;;;;;;;4.16;52.38;100162.00;5024197;28;20110;-70
2024/03/11 07:55:48;;;;;;;23.02;11.02;;;;;;;4.08;52.55;100153.63;5030955;28;20036;-75
2024/03/11 07:58:14;;;;;;;24.83;11.57;;;;;;;4.14;52.27;100153.44;5029659;28;20128;-76
2024/03/11 08:00:42;;;;;;;23.15;10.18;;;;;;;4.38;51.85;100155.41;5025777;28;20132;-73
2024/03/11 08:03:12;;;;;;;23.80;10.35;;;;;;;4.55;51.35;100154.97;5034946;28;20075;-75
2024/03/11 08:05:40;;;;;;;20.77;10.18;;;;;;;4.62;51.44;100140.97;5028872;28;20032;-76
2024/03/11 08:08:08;;;;;;;24.67;11.73;;;;;;;4.65;51.14;100150.41;5032947;28;20047;-71
2024/03/11 08:10:34;;;;;;;20.17;11.18;;;;;;;4.53;51.64;100150.75;5035183;28;20032;-72
2024/03/11 08:13:00;;;;;;;22.50;11.55;;;;;;;4.55;51.68;100154.13;5030409;28;20502;-76
2024/03/11 08:15:26;;;;;;;20.15;10.63;;;;;;;4.60;51.03;100153.13;5010317;28;20044;-74
2024/03/11 08:17:52;;;;;;;24.08;12.13;;;;;;;4.60;51.06;100152.28;5030305;28;20747;-76
2024/03/11 08:20:20;;;;;;;23.13;10.65;;;;;;;4.74;51.31;100163.09;5032390;28;20063;-75
2024/03/11 08:22:48;;;;;;;21.08;9.98;;;;;;;4.98;50.93;100173.72;5035100;28;20049;-77
2024/03/11 08:25:27;;;;;;;25.58;11.27;;;;;;;4.77;51.21;100165.63;5035792;28;21126;-73
2024/03/11 08:27:54;;;;;;;24.35;11.77;;;;;;;4.77;51.08;100178.56;5027871;28;20186;-76
2024/03/11 08:30:22;;;;;;;23.35;10.85;;;;;;;4.75;51.20;100188.09;5029358;28;20044;-77
2024/03/11 08:32:51;;;;;;;26.70;11.45;;;;;;;4.64;51.25;100190.13;5029393;28;20075;-79
2024/03/11 08:35:21;;;;;;;25.17;11.65;;;;;;;4.75;51.30;100198.47;5032786;28;20048;-77
2024/03/11 08:37:47;;;;;;;22.67;10.27;;;;;;;4.69;51.43;100208.97;5034768;28;20109;-77
2024/03/11 08:40:16;;;;;;;17.77;10.50;;;;;;;4.93;51.22;100207.50;5037444;28;20041;-78
2024/03/11 08:42:50;;;;;;;21.90;10.45;;;;;;;4.79;51.27;100219.97;5028893;28;20439;-78
2024/03/11 08:45:18;;;;;;;25.23;10.70;;;;;;;4.28;52.55;100218.63;5022619;28;20115;-73
2024/03/11 08:47:47;;;;;;;22.55;10.20;;;;;;;4.32;52.24;100220.28;5026434;28;20055;-74
2024/03/11 08:50:15;;;;;;;17.90;10.15;;;;;;;4.57;51.79;100222.25;5031916;28;20667;-74
2024/03/11 08:52:45;;;;;;;18.48;10.35;;;;;;;4.42;52.24;100224.31;5026881;28;20098;-70
2024/03/11 08:55:15;;;;;;;21.77;11.38;;;;;;;4.74;51.54;100222.63;5025153;28;20105;-70
2024/03/11 08:57:42;;;;;;;22.23;10.07;;;;;;;4.63;51.38;100215.19;5025626;28;21421;-70
2024/03/11 09:00:11;;;;;;;20.65;9.55;;;;;;;4.65;51.76;100222.88;5015300;28;20125;-70
2024/03/11 09:02:36;;;;;;;23.25;11.43;;;;;;;5.00;50.97;100215.97;5014751;28;20142;-70
2024/03/11 09:05:03;;;;;;;25.75;9.70;;;;;;;4.91;51.05;100218.81;5029777;28;20568;-70
2024/03/11 09:07:30;;;;;;;17.02;10.35;;;;;;;5.17;50.62;100224.13;5025704;28;20053;-70
2024/03/11 09:09:57;;;;;;;22.30;9.93;;;;;;;5.16;50.34;100225.00;5025897;28;20086;-70
2024/03/11 09:12:23;;;;;;;21.60;10.32;;;;;;;4.78;50.99;100226.84;5033049;28;20044;-70
2024/03/11 09:14:48;;;;;;;19.25;11.20;;;;;;;4.83;51.03;100226.72;5027847;28;20386;-70
2024/03/11 09:17:17;;;;;;;21.60;10.23;;;;;;;4.68;51.14;100230.59;5032523;28;20036;-71
2024/03/11 09:19:43;;;;;;;21.85;10.77;;;;;;;4.80;50.96;100235.44;5030242;28;20147;-71
2024/03/11 09:22:08;;;;;;;23.95;11.50;;;;;;;4.96;50.99;100233.31;5034004;28;20036;-70
2024/03/11 09:24:34;;;;;;;25.10;10.80;;;;;;;5.01;50.83;100230.59;5027207;28;20108;-70
2024/03/11 09:27:02;;;;;;;22.08;9.88;;;;;;;4.97;50.83;100240.22;5032246;28;20063;-70
2024/03/11 09:29:29;;;;;;;24.67;10.82;;;;;;;5.05;50.52;100237.41;5026987;28;20029;-70
2024/03/11 09:31:57;;;;;;;21.10;11.18;;;;;;;4.87;50.80;100243.88;5033213;28;20028;-70
2024/03/11 09:34:23;;;;;;;21.52;10.05;;;;;;;4.85;51.07;100250.84;5031926;28;20051;-70
2024/03/11 09:36:48;;;;;;;25.45;10.15;;;;;;;4.97;51.05;100247.13;5027982;28;20025;-70
2024/03/11 09:39:15;;;;;;;25.67;11.55;;;;;;;5.04;50.60;100246.06;5028354;28;20036;-70
2024/03/11 09:41:45;;;;;;;26.08;11.55;;;;;;;5.06;50.77;100246.88;5026864;28;20098;-70
2024/03/11 09:44:20;;;;;;;24.52;11.13;;;;;;;5.18;50.41;100246.53;5031488;28;20124;-70
2024/03/11 09:46:48;;;;;;;19.83;9.63;;;;;;;5.09;50.89;100249.38;5025512;28;20033;-71
2024/03/11 09:49:15;;;;;;;24.90;11.18;;;;;;;5.08;50.99;100247.69;5030333;28;20041;-71
2024/03/11 09:51:45;;;;;;;21.27;10.20;;;;;;;5.35;50.51;100250.41;5025963;28;20138;-70
2024/03/11 09:54:16;;;;;;;20.65;10.43;;;;;;;5.45;49.91;100251.84;5030467;28;20041;-70
2024/03/11 09:56:45;;;;;;;24.63;10.90;;;;;;;5.32;50.54;100259.09;5030432;28;20102;-70
2024/03/11 09:59:18;;;;;;;19.65;10.90;;;;;;;5.38;49.92;100258.94;5028996;28;20047;-70
2024/03/11 10:01:49;;;;;;;27.15;13.10;;;;;;;5.38;50.49;100263.28;5025213;28;20032;-70
2024/03/11 10:04:20;;;;;;;23.40;10.55;;;;;;;5.40;50.30;100256.31;5026123;28;20041;-70
2024/03/11 10:06:56;;;;;;;22.83;10.57;;;;;;;5.19;50.55;100244.78;5018084;28;20040;-69
2024/03/11 10:09:31;;;;;;;20.65;10.18;;;;;;;5.21;50.61;100243.88;5030586;28;20288;-69
2024/03/11 10:12:07;;;;;;;24.88;10.32;;;;;;;5.39;50.11;100244.22;5020173;28;20486;-70
2024/03/11 10:14:34;;;;;;;24.27;10.75;;;;;;;5.17;50.93;100242.25;5023606;28;20036;-70
2024/03/11 10:17:23;;;;;;;23.92;10.38;;;;;;;5.14;50.97;100238.88;5028207;28;20036;-70
2024/03/11 10:19:58;;;;;;;17.45;9.10;;;;;;;5.39;50.21;100242.50;5020078;28;20036;-70
2024/03/11 10:22:26;;;;;;;25.58;10.65;;;;;;;5.36;50.59;100246.91;5024603;28;20060;-69
2024/03/11 10:24:56;;;;;;;19.70;9.93;;;;;;;5.14;51.07;100244.91;5022008;28;20028;-70
2024/03/11 10:27:24;;;;;;;21.58;10.27;;;;;;;5.10;51.09;100250.22;5023141;28;20108;-69
2024/03/11 10:29:50;;;;;;;20.58;10.15;;;;;;;5.01;51.48;100246.13;5018578;28;20139;-69
2024/03/11 10:32:38;;;;;;;22.38;10.45;;;;;;;5.16;50.94;100255.25;5023915;28;20059;-71
2024/03/11 10:35:10;;;;;;;24.52;10.50;;;;;;;5.19;50.83;100258.63;5021928;28;21040;-69
2024/03/11 10:37:37;;;;;;;22.52;9.38;;;;;;;5.13;50.93;100253.59;5020772;28;20163;-69
2024/03/11 10:40:10;;;;;;;23.08;10.63;;;;;;;5.14;51.09;100251.84;5021924;28;20037;-70
2024/03/11 10:42:37;;;;;;;20.48;10.20;;;;;;;5.36;50.95;100246.91;5020522;28;20040;-70
2024/03/11 10:45:05;;;;;;;20.25;9.45;;;;;;;5.69;50.64;100252.03;5023756;28;20613;-70
2024/03/11 10:47:31;;;;;;;32.17;10.27;;;;;;;6.05;50.13;100255.25;5021985;28;20114;-70
2024/03/11 10:50:00;;;;;;;19.73;10.30;;;;;;;5.66;49.96;100256.41;5027733;28;20052;-70
2024/03/11 10:52:33;;;;;;;39.70;11.43;;;;;;;6.09;49.20;100252.50;5026033;28;20041;-73
2024/03/11 10:54:59;;;;;;;18.88;9.80;;;;;;;6.25;48.93;100259.81;5021157;28;21018;-70
2024/03/11 10:57:33;;;;;;;24.55;10.50;;;;;;;5.99;49.49;100256.28;5024265;28;20503;-70
2024/03/11 11:00:02;;;;;;;19.80;9.68;;;;;;;5.73;49.76;100266.59;5021080;28;20033;-71
2024/03/11 11:02:32;;;;;;;18.17;9.38;;;;;;;5.80;49.50;100271.56;5024927;28;20041;-70
2024/03/11 11:05:01;;;;;;;16.35;9.77;;;;;;;5.71;50.32;100266.66;5020142;28;20028;-69
2024/03/11 11:07:30;;;;;;;19.98;10.20;;;;;;;5.54;50.62;100259.34;5024053;28;20053;-69
2024/03/11 11:10:03;;;;;;;19.67;10.05;;;;;;;5.71;50.61;100266.66;5019596;28;20589;-70
2024/03/11 11:12:29;;;;;;;23.75;10.07;;;;;;;5.67;50.27;100267.63;5005265;27;20714;-70
2024/03/11 11:15:02;;;;;;;19.02;10.35;;;;;;;5.79;49.99;100266.41;5029188;28;20098;-69
2024/03/11 11:17:30;;;;;;;18.92;9.50;;;;;;;5.60;50.51;100273.88;5018852;28;20048;-69
2024/03/11 11:19:58;;;;;;;23.13;10.85;;;;;;;5.72;50.42;100280.44;5021598;28;20033;-69
2024/03/11 11:22:28;;;;;;;26.40;12.25;;;;;;;5.60;50.61;100276.47;5019855;28;20068;-70